createdAt,value
2022-10-26T00:00:01.248Z,9.30
2022-10-26T00:01:04.566Z,9.80
2022-10-26T00:02:01.092Z,10.37
2022-10-26T00:03:01.271Z,10.20
2022-10-26T00:04:00.940Z,10.07
2022-10-26T00:05:01.242Z,8.80
2022-10-26T00:06:04.445Z,8.97
2022-10-26T00:07:01.244Z,9.47
2022-10-26T00:08:02.118Z,11.23
2022-10-26T00:09:01.396Z,9.10
2022-10-26T00:10:01.262Z,11.77
2022-10-26T00:11:01.158Z,9.57
2022-10-26T00:12:02.124Z,9.17
2022-10-26T00:13:01.644Z,9.07
2022-10-26T00:14:00.948Z,9.33
2022-10-26T00:15:00.941Z,8.73
2022-10-26T00:16:06.408Z,8.23
2022-10-26T00:17:01.326Z,7.20
2022-10-26T00:18:01.341Z,9.20
2022-10-26T00:19:01.278Z,9.63
2022-10-26T00:20:01.167Z,9.73
2022-10-26T00:21:02.849Z,7.27
2022-10-26T00:22:00.997Z,7.80
2022-10-26T00:23:01.233Z,7.23
2022-10-26T00:24:01.225Z,7.67
2022-10-26T00:25:00.946Z,5.60
2022-10-26T00:26:01.401Z,8.07
2022-10-26T00:27:01.204Z,6.97
2022-10-26T00:28:00.944Z,8.23
2022-10-26T00:29:00.941Z,7.07
2022-10-26T00:30:01.271Z,6.57
2022-10-26T00:31:01.816Z,6.40
2022-10-26T00:32:01.256Z,5.23
2022-10-26T00:33:01.229Z,5.07
2022-10-26T00:34:00.934Z,4.20
2022-10-26T00:35:10.573Z,5.43
2022-10-26T00:36:01.547Z,5.60
2022-10-26T00:37:01.261Z,5.13
2022-10-26T00:38:00.959Z,6.03
2022-10-26T00:39:00.920Z,5.43
2022-10-26T00:40:01.222Z,5.67
2022-10-26T00:41:01.266Z,4.03
2022-10-26T00:42:01.175Z,4.37
2022-10-26T00:43:01.377Z,4.30
2022-10-26T00:44:01.350Z,6.03
2022-10-26T00:45:06.850Z,5.80
2022-10-26T00:46:04.474Z,4.57
2022-10-26T00:47:00.974Z,4.77
2022-10-26T00:48:05.952Z,6.23
2022-10-26T00:49:04.392Z,5.37
2022-10-26T00:50:07.423Z,6.67
2022-10-26T00:51:06.212Z,4.97
2022-10-26T00:52:00.982Z,5.77
2022-10-26T00:53:04.170Z,6.80
2022-10-26T00:54:04.845Z,6.90
2022-10-26T00:55:01.123Z,6.03
2022-10-26T00:56:02.302Z,6.90
2022-10-26T00:57:01.295Z,7.40
2022-10-26T00:58:05.333Z,6.57
2022-10-26T00:59:05.119Z,7.90
2022-10-26T01:00:01.606Z,9.47
2022-10-26T01:01:01.231Z,9.13
2022-10-26T01:02:01.291Z,9.10
2022-10-26T01:03:05.446Z,8.57
2022-10-26T01:04:01.441Z,6.83
2022-10-26T01:05:03.873Z,7.97
2022-10-26T01:06:04.456Z,9.40
2022-10-26T01:07:04.362Z,11.03
2022-10-26T01:08:01.977Z,8.43
2022-10-26T01:09:01.033Z,10.73
2022-10-26T01:10:01.409Z,13.33
2022-10-26T01:11:02.430Z,10.77
2022-10-26T01:12:01.273Z,11.60
2022-10-26T01:13:02.229Z,10.20
2022-10-26T01:14:05.267Z,10.03
2022-10-26T01:15:01.454Z,9.37
2022-10-26T01:16:15.139Z,9.37
2022-10-26T01:17:12.411Z,8.17
2022-10-26T01:18:09.725Z,9.63
2022-10-26T01:19:18.550Z,9.03
2022-10-26T01:20:20.407Z,9.70
2022-10-26T01:21:20.421Z,8.87
2022-10-26T01:22:05.915Z,8.77
2022-10-26T01:23:07.885Z,7.77
2022-10-26T01:24:20.405Z,8.20
2022-10-26T01:25:08.179Z,9.53
2022-10-26T01:26:20.426Z,8.97
2022-10-26T01:27:15.415Z,7.37
2022-10-26T01:28:06.725Z,7.33
2022-10-26T01:29:20.413Z,7.33
2022-10-26T01:30:16.229Z,8.17
2022-10-26T01:31:05.353Z,7.83
2022-10-26T01:32:09.174Z,8.13
2022-10-26T01:33:14.904Z,8.57
2022-10-26T01:34:08.202Z,7.17
2022-10-26T01:35:07.288Z,6.97
2022-10-26T01:36:09.829Z,6.13
2022-10-26T01:37:06.533Z,4.97
2022-10-26T01:38:08.606Z,6.63
2022-10-26T01:39:06.472Z,6.50
2022-10-26T01:40:08.819Z,6.53
2022-10-26T01:41:15.006Z,4.93
2022-10-26T01:42:04.713Z,5.03
2022-10-26T01:43:06.091Z,4.10
2022-10-26T01:44:04.312Z,6.87
2022-10-26T01:45:06.409Z,5.67
2022-10-26T01:46:03.781Z,4.03
2022-10-26T01:47:03.036Z,4.73
2022-10-26T01:48:03.544Z,4.97
2022-10-26T01:49:05.943Z,3.60
2022-10-26T01:50:03.393Z,5.40
2022-10-26T01:51:03.622Z,3.53
2022-10-26T01:52:01.259Z,4.87
2022-10-26T01:53:00.972Z,6.23
2022-10-26T01:54:01.299Z,3.93
2022-10-26T01:55:02.260Z,3.70
2022-10-26T01:56:01.607Z,5.37
2022-10-26T01:57:04.520Z,5.60
2022-10-26T01:58:12.737Z,5.23
2022-10-26T01:59:12.843Z,6.33
2022-10-26T02:00:06.709Z,4.60
2022-10-26T02:01:11.177Z,4.07
2022-10-26T02:02:20.412Z,5.00
2022-10-26T02:03:14.658Z,3.50
2022-10-26T02:04:10.018Z,5.87
2022-10-26T02:05:11.739Z,5.60
2022-10-26T02:06:11.184Z,5.83
2022-10-26T02:07:03.998Z,5.23
2022-10-26T02:08:14.257Z,4.50
2022-10-26T02:09:13.493Z,4.57
2022-10-26T02:10:17.995Z,4.33
2022-10-26T02:11:13.360Z,5.67
2022-10-26T02:12:08.980Z,5.23
2022-10-26T02:13:09.910Z,3.97
2022-10-26T02:14:12.254Z,5.70
2022-10-26T02:15:06.868Z,3.97
2022-10-26T02:16:13.528Z,4.07
2022-10-26T02:17:07.848Z,4.43
2022-10-26T02:18:08.260Z,4.30
2022-10-26T02:19:05.154Z,4.60
2022-10-26T02:20:04.919Z,5.60
2022-10-26T02:21:06.569Z,3.13
2022-10-26T02:22:08.918Z,5.80
2022-10-26T02:23:04.542Z,6.07
2022-10-26T02:24:04.305Z,5.80
2022-10-26T02:25:07.073Z,6.70
2022-10-26T02:26:04.875Z,6.10
2022-10-26T02:27:04.116Z,5.47
2022-10-26T02:28:05.297Z,6.20
2022-10-26T02:29:04.944Z,4.80
2022-10-26T02:30:03.300Z,4.70
2022-10-26T02:31:03.563Z,7.60
2022-10-26T02:32:05.112Z,4.07
2022-10-26T02:33:03.912Z,5.37
2022-10-26T02:34:06.505Z,5.53
2022-10-26T02:35:04.245Z,6.17
2022-10-26T02:36:04.813Z,5.17
2022-10-26T02:37:03.702Z,5.90
2022-10-26T02:38:04.254Z,5.33
2022-10-26T02:39:04.409Z,5.83
2022-10-26T02:40:06.756Z,3.43
2022-10-26T02:41:03.232Z,3.73
2022-10-26T02:42:05.600Z,4.33
2022-10-26T02:43:06.750Z,5.07
2022-10-26T02:44:07.792Z,5.77
2022-10-26T02:45:06.171Z,4.73
2022-10-26T02:46:07.555Z,5.67
2022-10-26T02:47:01.936Z,3.47
2022-10-26T02:48:01.038Z,4.17
2022-10-26T02:49:01.422Z,3.73
2022-10-26T02:50:01.791Z,4.17
2022-10-26T02:51:09.072Z,6.40
2022-10-26T02:52:05.145Z,4.83
2022-10-26T02:53:10.448Z,5.87
2022-10-26T02:54:07.634Z,5.47
2022-10-26T02:55:06.731Z,4.63
2022-10-26T02:56:07.418Z,4.00
2022-10-26T02:57:08.517Z,4.70
2022-10-26T02:58:07.679Z,5.87
2022-10-26T02:59:05.210Z,6.07
2022-10-26T03:00:01.861Z,4.23
2022-10-26T03:01:01.155Z,4.27
2022-10-26T03:02:02.171Z,4.07
2022-10-26T03:03:00.996Z,4.30
2022-10-26T03:04:01.442Z,3.03
2022-10-26T03:05:10.559Z,3.40
2022-10-26T03:06:01.244Z,4.30
2022-10-26T03:07:01.572Z,2.87
2022-10-26T03:08:01.617Z,5.07
2022-10-26T03:09:00.975Z,5.27
2022-10-26T03:10:01.228Z,4.00
2022-10-26T03:11:00.937Z,4.47
2022-10-26T03:12:01.245Z,6.07
2022-10-26T03:13:00.944Z,4.53
2022-10-26T03:14:01.321Z,3.87
2022-10-26T03:15:01.260Z,5.53
2022-10-26T03:16:01.205Z,3.53
2022-10-26T03:17:00.949Z,5.27
2022-10-26T03:18:01.140Z,4.80
2022-10-26T03:19:01.216Z,4.30
2022-10-26T03:20:01.514Z,3.73
2022-10-26T03:21:01.399Z,4.10
2022-10-26T03:22:00.909Z,4.70
2022-10-26T03:23:00.950Z,3.33
2022-10-26T03:24:00.974Z,3.27
2022-10-26T03:25:01.345Z,2.47
2022-10-26T03:26:01.066Z,3.63
2022-10-26T03:27:02.457Z,3.57
2022-10-26T03:28:03.055Z,3.27
2022-10-26T03:29:00.933Z,3.77
2022-10-26T03:30:00.926Z,3.60
2022-10-26T03:31:01.230Z,3.30
2022-10-26T03:32:01.227Z,3.43
2022-10-26T03:33:01.243Z,2.57
2022-10-26T03:34:01.233Z,3.67
2022-10-26T03:35:01.053Z,3.10
2022-10-26T03:36:01.252Z,3.73
2022-10-26T03:37:01.495Z,2.87
2022-10-26T03:38:01.310Z,3.03
2022-10-26T03:39:01.389Z,3.30
2022-10-26T03:40:01.246Z,2.93
2022-10-26T03:41:00.958Z,2.97
2022-10-26T03:42:00.980Z,4.57
2022-10-26T03:43:00.943Z,2.83
2022-10-26T03:44:01.231Z,2.33
2022-10-26T03:45:01.138Z,3.00
2022-10-26T03:46:01.048Z,3.40
2022-10-26T03:47:00.922Z,2.90
2022-10-26T03:48:00.935Z,3.50
2022-10-26T03:49:01.238Z,1.63
2022-10-26T03:50:01.018Z,2.80
2022-10-26T03:51:01.237Z,3.77
2022-10-26T03:52:01.611Z,2.70
2022-10-26T03:53:01.262Z,3.30
2022-10-26T03:54:00.952Z,3.10
2022-10-26T03:55:00.938Z,2.47
2022-10-26T03:56:00.917Z,3.87
2022-10-26T03:57:00.934Z,3.23
2022-10-26T03:58:01.613Z,3.47
2022-10-26T03:59:01.242Z,4.17
2022-10-26T04:00:01.150Z,3.43
2022-10-26T04:01:00.941Z,4.57
2022-10-26T04:02:00.970Z,4.30
2022-10-26T04:03:00.999Z,4.40
2022-10-26T04:04:01.027Z,5.70
2022-10-26T04:05:01.254Z,5.23
2022-10-26T04:06:01.269Z,3.07
2022-10-26T04:07:01.242Z,3.17
2022-10-26T04:08:01.609Z,4.57
2022-10-26T04:09:01.050Z,6.53
2022-10-26T04:10:00.957Z,5.53
2022-10-26T04:11:03.813Z,6.17
2022-10-26T04:12:00.944Z,5.33
2022-10-26T04:13:00.943Z,5.73
2022-10-26T04:14:01.091Z,5.67
2022-10-26T04:15:00.929Z,4.07
2022-10-26T04:16:01.432Z,5.13
2022-10-26T04:17:00.932Z,5.33
2022-10-26T04:18:02.276Z,5.53
2022-10-26T04:19:01.245Z,3.97
2022-10-26T04:20:01.352Z,5.30
2022-10-26T04:21:01.158Z,4.97
2022-10-26T04:22:01.310Z,4.20
2022-10-26T04:23:03.652Z,6.90
2022-10-26T04:24:01.461Z,4.73
2022-10-26T04:25:01.288Z,6.50
2022-10-26T04:26:00.941Z,4.83
2022-10-26T04:27:00.916Z,4.40
2022-10-26T04:28:02.967Z,4.23
2022-10-26T04:29:01.205Z,5.40
2022-10-26T04:30:01.361Z,3.80
2022-10-26T04:31:01.264Z,5.73
2022-10-26T04:32:00.957Z,3.93
2022-10-26T04:33:01.617Z,4.63
2022-10-26T04:34:01.404Z,4.00
2022-10-26T04:35:01.223Z,4.00
2022-10-26T04:36:01.590Z,4.87
2022-10-26T04:37:01.246Z,5.67
2022-10-26T04:38:04.923Z,6.23
2022-10-26T04:39:01.414Z,6.30
2022-10-26T04:40:01.027Z,5.50
2022-10-26T04:41:01.294Z,6.57
2022-10-26T04:42:01.204Z,4.20
2022-10-26T04:43:01.684Z,5.03
2022-10-26T04:44:01.289Z,5.23
2022-10-26T04:45:00.925Z,5.67
2022-10-26T04:46:00.939Z,5.17
2022-10-26T04:47:01.250Z,4.77
2022-10-26T04:48:03.782Z,6.00
2022-10-26T04:49:00.935Z,5.00
2022-10-26T04:50:01.251Z,5.23
2022-10-26T04:51:00.999Z,4.20
2022-10-26T04:52:01.266Z,6.03
2022-10-26T04:57:01.280Z,4.50
2022-10-26T04:58:02.014Z,4.20
2022-10-26T04:59:01.026Z,5.60
2022-10-26T05:00:02.964Z,3.53
2022-10-26T05:01:01.803Z,3.53
2022-10-26T05:02:01.315Z,5.23
2022-10-26T05:03:02.047Z,3.23
2022-10-26T05:04:00.954Z,5.60
2022-10-26T05:05:00.985Z,4.03
2022-10-26T05:06:00.945Z,4.53
2022-10-26T05:07:01.251Z,4.50
2022-10-26T05:08:00.950Z,4.10
2022-10-26T05:09:01.490Z,5.93
2022-10-26T05:10:00.941Z,5.17
2022-10-26T05:11:00.943Z,3.87
2022-10-26T05:12:01.258Z,3.90
2022-10-26T05:13:01.347Z,3.53
2022-10-26T05:14:00.947Z,3.40
2022-10-26T05:15:03.937Z,4.20
2022-10-26T05:16:00.949Z,3.13
2022-10-26T05:17:01.259Z,5.90
2022-10-26T05:18:03.252Z,3.70
2022-10-26T05:19:00.982Z,4.50
2022-10-26T05:20:01.205Z,3.70
2022-10-26T05:21:01.243Z,4.23
2022-10-26T05:22:01.280Z,3.07
2022-10-26T05:23:03.071Z,4.93
2022-10-26T05:24:01.422Z,2.83
2022-10-26T05:25:00.929Z,5.07
2022-10-26T05:26:00.943Z,4.03
2022-10-26T05:27:01.004Z,1.63
2022-10-26T05:28:03.256Z,3.17
2022-10-26T05:29:01.296Z,3.43
2022-10-26T05:30:00.995Z,3.63
2022-10-26T05:31:01.204Z,2.57
2022-10-26T05:32:00.919Z,3.53
2022-10-26T05:33:02.143Z,3.33
2022-10-26T05:34:00.954Z,3.17
2022-10-26T05:35:01.488Z,3.53
2022-10-26T05:36:00.986Z,2.83
2022-10-26T05:37:00.936Z,3.67
2022-10-26T05:38:06.489Z,3.50
2022-10-26T05:39:01.255Z,3.33
2022-10-26T05:40:00.954Z,3.30
2022-10-26T05:41:00.941Z,4.33
2022-10-26T05:42:01.160Z,3.20
2022-10-26T05:43:01.987Z,5.03
2022-10-26T05:44:00.955Z,2.27
2022-10-26T05:45:00.935Z,3.73
2022-10-26T05:46:01.237Z,3.33
2022-10-26T05:47:01.270Z,2.80
2022-10-26T05:48:02.857Z,4.30
2022-10-26T05:49:01.225Z,2.17
2022-10-26T05:50:01.252Z,2.50
2022-10-26T05:51:01.089Z,3.40
2022-10-26T05:52:01.250Z,3.67
2022-10-26T05:53:01.932Z,3.07
2022-10-26T05:54:00.921Z,2.67
2022-10-26T05:55:01.000Z,3.03
2022-10-26T05:56:01.212Z,2.73
2022-10-26T05:57:01.207Z,2.87
2022-10-26T05:58:01.869Z,3.07
2022-10-26T05:59:02.055Z,2.47
2022-10-26T06:00:02.007Z,2.70
2022-10-26T06:01:12.521Z,2.67
2022-10-26T06:02:12.439Z,3.50
2022-10-26T06:03:12.002Z,3.47
2022-10-26T06:04:18.449Z,2.87
2022-10-26T06:05:04.085Z,3.67
2022-10-26T06:06:03.978Z,1.80
2022-10-26T06:07:01.791Z,3.37
2022-10-26T06:08:01.264Z,2.70
2022-10-26T06:09:01.250Z,3.00
2022-10-26T06:10:01.327Z,3.63
2022-10-26T06:11:01.174Z,3.43
2022-10-26T06:12:01.213Z,3.90
2022-10-26T06:13:01.774Z,4.60
2022-10-26T06:14:01.170Z,2.53
2022-10-26T06:15:01.973Z,2.57
2022-10-26T06:16:15.553Z,1.90
2022-10-26T06:17:14.560Z,2.10
2022-10-26T06:18:13.103Z,2.47
2022-10-26T06:19:14.427Z,2.53
2022-10-26T06:20:19.337Z,2.00
2022-10-26T06:21:13.934Z,2.53
2022-10-26T06:22:15.148Z,3.37
2022-10-26T06:23:16.611Z,2.23
2022-10-26T06:24:08.683Z,2.67
2022-10-26T06:25:12.824Z,3.93
2022-10-26T06:26:13.350Z,1.70
2022-10-26T06:27:15.723Z,4.17
2022-10-26T06:28:14.987Z,2.00
2022-10-26T06:29:11.768Z,2.37
2022-10-26T06:30:03.781Z,3.07
2022-10-26T06:31:01.422Z,3.23
2022-10-26T06:32:01.454Z,2.30
2022-10-26T06:33:06.002Z,3.47
2022-10-26T06:34:01.643Z,2.67
2022-10-26T06:35:16.043Z,2.70
2022-10-26T06:36:11.119Z,2.37
2022-10-26T06:37:03.191Z,3.30
2022-10-26T06:38:06.650Z,2.00
2022-10-26T06:39:05.001Z,4.63
2022-10-26T06:40:02.262Z,2.87
2022-10-26T06:41:01.501Z,3.07
2022-10-26T06:42:01.809Z,4.13
2022-10-26T06:43:01.943Z,5.00
2022-10-26T06:44:01.487Z,4.20
2022-10-26T06:45:01.402Z,3.97
2022-10-26T06:46:09.896Z,2.57
2022-10-26T06:47:05.579Z,2.77
2022-10-26T06:48:07.981Z,3.73
2022-10-26T06:49:08.605Z,3.97
2022-10-26T06:50:11.847Z,3.00
2022-10-26T06:51:01.273Z,3.80
2022-10-26T06:52:04.641Z,4.57
2022-10-26T06:53:09.158Z,3.07
2022-10-26T06:54:08.413Z,2.70
2022-10-26T06:55:01.682Z,2.93
2022-10-26T06:56:01.418Z,2.53
2022-10-26T06:57:01.233Z,3.07
2022-10-26T06:58:01.838Z,4.03
2022-10-26T06:59:08.286Z,3.00
2022-10-26T07:00:05.415Z,2.70
2022-10-26T07:01:01.490Z,4.40
2022-10-26T07:02:04.208Z,4.97
2022-10-26T07:03:01.002Z,4.23
2022-10-26T07:04:00.970Z,2.97
2022-10-26T07:05:00.926Z,4.47
2022-10-26T07:06:00.955Z,2.50
2022-10-26T07:07:01.107Z,3.67
2022-10-26T07:08:01.274Z,4.27
2022-10-26T07:09:01.218Z,3.67
2022-10-26T07:10:01.386Z,3.13
2022-10-26T07:11:01.284Z,3.77
2022-10-26T07:12:01.067Z,4.80
2022-10-26T07:13:01.217Z,5.43
2022-10-26T07:14:01.254Z,4.07
2022-10-26T07:15:01.138Z,4.80
2022-10-26T07:16:00.941Z,3.13
2022-10-26T07:17:01.046Z,3.37
2022-10-26T07:18:03.100Z,3.57
2022-10-26T07:19:01.229Z,2.43
2022-10-26T07:20:00.956Z,2.33
2022-10-26T07:21:01.257Z,1.80
2022-10-26T07:22:01.048Z,3.50
2022-10-26T07:23:01.810Z,2.90
2022-10-26T07:24:00.946Z,3.43
2022-10-26T07:25:03.007Z,3.30
2022-10-26T07:26:01.297Z,3.23
2022-10-26T07:27:00.957Z,3.93
2022-10-26T07:28:01.395Z,3.70
2022-10-26T07:29:01.444Z,2.93
2022-10-26T07:30:01.589Z,2.43
2022-10-26T07:31:00.925Z,4.47
2022-10-26T07:32:01.727Z,3.77
2022-10-26T07:33:02.124Z,1.90
2022-10-26T07:34:01.051Z,3.93
2022-10-26T07:35:01.371Z,2.63
2022-10-26T07:36:01.268Z,3.67
2022-10-26T07:37:01.285Z,3.87
2022-10-26T07:38:01.809Z,2.83
2022-10-26T07:39:00.997Z,3.53
2022-10-26T07:40:05.645Z,2.20
2022-10-26T07:41:01.349Z,2.97
2022-10-26T07:42:01.254Z,2.33
2022-10-26T07:43:01.495Z,2.77
2022-10-26T07:44:01.254Z,2.60
2022-10-26T07:45:00.923Z,1.03
2022-10-26T07:46:00.954Z,2.53
2022-10-26T07:47:01.226Z,1.90
2022-10-26T07:48:00.971Z,2.67
2022-10-26T07:49:00.931Z,2.83
2022-10-26T07:50:00.921Z,1.83
2022-10-26T07:51:02.828Z,0.97
2022-10-26T07:52:00.931Z,4.40
2022-10-26T07:53:00.949Z,2.80
2022-10-26T07:54:01.279Z,2.03
2022-10-26T07:55:00.949Z,1.63
2022-10-26T07:56:01.229Z,1.87
2022-10-26T07:57:01.106Z,2.17
2022-10-26T07:58:01.448Z,2.20
2022-10-26T07:59:01.023Z,1.03
2022-10-26T08:00:01.352Z,2.07
2022-10-26T08:01:05.585Z,3.63
2022-10-26T08:02:01.013Z,1.40
2022-10-26T08:03:00.927Z,2.77
2022-10-26T08:04:00.927Z,1.57
2022-10-26T08:05:01.551Z,2.53
2022-10-26T08:06:01.646Z,1.70
2022-10-26T08:07:01.230Z,3.07
2022-10-26T08:08:01.237Z,2.37
2022-10-26T08:09:01.535Z,2.33
2022-10-26T08:10:01.229Z,1.27
2022-10-26T08:11:01.614Z,1.93
2022-10-26T08:12:01.264Z,2.57
2022-10-26T08:13:00.936Z,1.20
2022-10-26T08:14:00.917Z,1.17
2022-10-26T08:15:01.312Z,2.33
2022-10-26T08:16:04.079Z,1.90
2022-10-26T08:17:01.029Z,2.00
2022-10-26T08:18:01.259Z,4.23
2022-10-26T08:19:01.139Z,2.60
2022-10-26T08:20:01.051Z,2.57
2022-10-26T08:21:10.766Z,3.37
2022-10-26T08:22:01.120Z,2.40
2022-10-26T08:23:01.545Z,2.43
2022-10-26T08:24:01.213Z,1.07
2022-10-26T08:25:01.249Z,1.83
2022-10-26T08:26:01.483Z,2.13
2022-10-26T08:27:01.328Z,1.60
2022-10-26T08:28:01.848Z,3.63
2022-10-26T08:29:01.373Z,1.67
2022-10-26T08:30:00.934Z,2.27
2022-10-26T08:31:00.949Z,2.60
2022-10-26T08:32:00.946Z,1.47
2022-10-26T08:33:02.927Z,3.13
2022-10-26T08:34:00.946Z,2.07
2022-10-26T08:35:01.251Z,2.73
2022-10-26T08:36:03.773Z,1.70
2022-10-26T08:37:01.231Z,2.63
2022-10-26T08:38:01.042Z,3.13
2022-10-26T08:39:01.327Z,1.83
2022-10-26T08:40:03.080Z,2.33
2022-10-26T08:41:07.104Z,2.83
2022-10-26T08:42:08.470Z,1.17
2022-10-26T08:43:05.674Z,2.57
2022-10-26T08:44:07.179Z,1.90
2022-10-26T08:45:06.052Z,2.73
2022-10-26T08:46:06.228Z,1.97
2022-10-26T08:47:06.231Z,2.00
2022-10-26T08:48:05.500Z,1.73
2022-10-26T08:49:09.209Z,1.60
2022-10-26T08:50:05.588Z,2.03
2022-10-26T08:51:06.164Z,1.93
2022-10-26T08:52:02.409Z,2.07
2022-10-26T08:53:07.154Z,2.20
2022-10-26T08:54:05.098Z,1.93
2022-10-26T08:55:03.426Z,3.00
2022-10-26T08:56:08.336Z,1.70
2022-10-26T08:57:10.644Z,1.53
2022-10-26T08:58:05.151Z,2.27
2022-10-26T08:59:10.772Z,1.90
2022-10-26T09:00:04.119Z,2.87
2022-10-26T09:01:01.062Z,2.77
2022-10-26T09:02:01.184Z,2.27
2022-10-26T09:03:00.950Z,0.93
2022-10-26T09:04:03.379Z,1.97
2022-10-26T09:05:01.905Z,2.37
2022-10-26T09:06:12.369Z,1.57
2022-10-26T09:07:07.758Z,2.33
2022-10-26T09:08:11.598Z,2.87
2022-10-26T09:09:09.971Z,1.37
2022-10-26T09:10:15.577Z,4.00
2022-10-26T09:11:07.662Z,2.90
2022-10-26T09:12:09.239Z,1.60
2022-10-26T09:13:13.630Z,6.63
2022-10-26T09:14:11.214Z,4.80
2022-10-26T09:15:11.369Z,2.97
2022-10-26T09:16:07.361Z,2.77
2022-10-26T09:17:11.124Z,2.13
2022-10-26T09:18:14.976Z,2.77
2022-10-26T09:19:20.408Z,2.77
2022-10-26T09:20:18.863Z,2.53
2022-10-26T09:21:09.278Z,1.83
2022-10-26T09:22:06.626Z,1.97
2022-10-26T09:23:15.611Z,2.03
2022-10-26T09:24:07.495Z,2.63
2022-10-26T09:25:11.612Z,2.53
2022-10-26T09:26:02.884Z,2.33
2022-10-26T09:27:11.667Z,2.63
2022-10-26T09:28:01.755Z,2.97
2022-10-26T09:29:04.561Z,2.70
2022-10-26T09:30:12.110Z,3.67
2022-10-26T09:31:03.230Z,2.07
2022-10-26T09:32:03.549Z,1.83
2022-10-26T09:33:09.040Z,2.00
2022-10-26T09:34:06.168Z,1.43
2022-10-26T09:35:04.928Z,2.80
2022-10-26T09:36:04.689Z,2.33
2022-10-26T09:37:12.866Z,3.00
2022-10-26T09:38:12.765Z,2.83
2022-10-26T09:39:09.702Z,2.93
2022-10-26T09:40:12.450Z,2.53
2022-10-26T09:41:09.328Z,2.77
2022-10-26T09:42:11.758Z,3.27
2022-10-26T09:43:09.390Z,5.57
2022-10-26T09:44:09.888Z,6.33
2022-10-26T09:45:06.377Z,3.97
2022-10-26T09:46:00.996Z,4.73
2022-10-26T09:47:09.191Z,3.07
2022-10-26T09:48:10.360Z,2.60
2022-10-26T09:49:05.678Z,3.30
2022-10-26T09:50:06.342Z,3.30
2022-10-26T09:51:04.489Z,2.40
2022-10-26T09:52:01.119Z,2.53
2022-10-26T09:53:01.611Z,2.57
2022-10-26T09:54:01.257Z,3.97
2022-10-26T09:55:01.122Z,2.13
2022-10-26T09:56:04.991Z,2.40
2022-10-26T09:57:03.950Z,3.60
2022-10-26T09:58:06.090Z,1.97
2022-10-26T09:59:05.162Z,2.43
2022-10-26T10:00:01.501Z,2.30
2022-10-26T10:01:01.209Z,3.00
2022-10-26T10:02:15.248Z,1.93
2022-10-26T10:03:01.075Z,0.93
2022-10-26T10:04:16.647Z,1.77
2022-10-26T10:05:02.201Z,2.00
2022-10-26T10:06:15.343Z,2.90
2022-10-26T10:07:11.925Z,2.73
2022-10-26T10:08:14.619Z,3.87
2022-10-26T10:09:06.265Z,3.60
2022-10-26T10:10:15.091Z,2.63
2022-10-26T10:11:05.089Z,2.37
2022-10-26T10:12:02.780Z,2.03
2022-10-26T10:13:14.997Z,3.87
2022-10-26T10:14:07.416Z,2.00
2022-10-26T10:15:00.989Z,3.07
2022-10-26T10:16:05.973Z,2.50
2022-10-26T10:17:04.688Z,2.57
2022-10-26T10:18:00.932Z,2.47
2022-10-26T10:19:01.350Z,3.27
2022-10-26T10:20:08.558Z,1.77
2022-10-26T10:21:01.619Z,2.77
2022-10-26T10:22:10.657Z,2.73
2022-10-26T10:23:02.998Z,3.23
2022-10-26T10:24:01.253Z,1.90
2022-10-26T10:25:03.140Z,3.23
2022-10-26T10:26:04.901Z,3.33
2022-10-26T10:27:03.866Z,2.70
2022-10-26T10:28:02.495Z,1.90
2022-10-26T10:29:01.159Z,1.73
2022-10-26T10:30:19.769Z,2.27
2022-10-26T10:31:03.370Z,2.27
2022-10-26T10:32:02.934Z,3.00
2022-10-26T10:33:06.126Z,2.20
2022-10-26T10:34:15.410Z,2.00
2022-10-26T10:35:01.365Z,3.50
2022-10-26T10:36:04.320Z,1.83
2022-10-26T10:37:01.632Z,2.00
2022-10-26T10:38:01.303Z,2.13
2022-10-26T10:39:01.573Z,1.53
2022-10-26T10:40:05.137Z,2.47
2022-10-26T10:41:01.310Z,3.10
2022-10-26T10:42:02.128Z,3.27
2022-10-26T10:43:05.653Z,3.23
2022-10-26T10:44:06.919Z,2.40
2022-10-26T10:45:03.243Z,2.83
2022-10-26T10:46:01.436Z,3.53
2022-10-26T10:47:03.319Z,2.90
2022-10-26T10:48:04.815Z,3.43
2022-10-26T10:49:03.211Z,2.53
2022-10-26T10:50:05.740Z,3.00
2022-10-26T10:51:04.803Z,3.47
2022-10-26T10:52:00.937Z,4.53
2022-10-26T10:53:13.245Z,2.77
2022-10-26T10:54:02.337Z,3.10
2022-10-26T10:55:14.940Z,3.27
2022-10-26T10:56:13.595Z,3.77
2022-10-26T10:57:12.942Z,3.10
2022-10-26T10:58:12.546Z,2.63
2022-10-26T10:59:14.980Z,2.27
2022-10-26T11:00:03.831Z,4.03
2022-10-26T11:01:02.036Z,3.30
2022-10-26T11:02:20.456Z,2.93
2022-10-26T11:03:15.119Z,1.73
2022-10-26T11:04:20.422Z,1.70
2022-10-26T11:05:23.338Z,2.37
2022-10-26T11:06:10.081Z,4.47
2022-10-26T11:07:05.845Z,3.40
2022-10-26T11:08:07.650Z,2.63
2022-10-26T11:09:06.937Z,3.07
2022-10-26T11:10:03.213Z,4.73
2022-10-26T11:11:07.247Z,2.03
2022-10-26T11:12:07.856Z,2.63
2022-10-26T11:13:09.858Z,3.73
2022-10-26T11:14:05.652Z,3.23
2022-10-26T11:15:06.502Z,3.73
2022-10-26T11:16:03.702Z,3.83
2022-10-26T11:17:06.071Z,3.60
2022-10-26T11:18:07.874Z,3.37
2022-10-26T11:19:10.877Z,2.47
2022-10-26T11:20:05.421Z,3.60
2022-10-26T11:21:12.850Z,2.00
2022-10-26T11:22:04.716Z,2.13
2022-10-26T11:23:09.360Z,4.60
2022-10-26T11:24:11.583Z,1.83
2022-10-26T11:25:05.134Z,1.67
2022-10-26T11:26:08.407Z,4.33
2022-10-26T11:27:11.323Z,3.00
2022-10-26T11:28:10.262Z,3.03
2022-10-26T11:29:06.635Z,3.40
2022-10-26T11:30:05.207Z,2.73
2022-10-26T11:31:07.053Z,3.10
2022-10-26T11:32:07.808Z,2.97
2022-10-26T11:33:08.669Z,2.73
2022-10-26T11:34:13.025Z,3.40
2022-10-26T11:35:12.935Z,3.40
2022-10-26T11:36:05.158Z,4.17
2022-10-26T11:37:07.551Z,3.30
2022-10-26T11:38:09.493Z,3.20
2022-10-26T11:39:11.235Z,3.20
2022-10-26T11:40:12.536Z,3.80
2022-10-26T11:41:09.956Z,3.73
2022-10-26T11:42:07.045Z,3.00
2022-10-26T11:43:10.610Z,3.33
2022-10-26T11:44:10.245Z,2.90
2022-10-26T11:45:09.188Z,2.73
2022-10-26T11:46:05.039Z,2.73
2022-10-26T11:47:05.777Z,4.73
2022-10-26T11:48:11.627Z,3.33
2022-10-26T11:49:10.556Z,4.47
2022-10-26T11:50:14.655Z,4.93
2022-10-26T11:51:02.010Z,2.63
2022-10-26T11:52:11.198Z,3.97
2022-10-26T11:53:10.811Z,3.33
2022-10-26T11:54:06.847Z,4.30
2022-10-26T11:55:02.462Z,3.70
2022-10-26T11:56:07.675Z,2.77
2022-10-26T11:57:04.203Z,4.07
2022-10-26T11:58:02.431Z,5.23
2022-10-26T12:00:04.791Z,4.67
2022-10-26T12:01:04.096Z,3.50
2022-10-26T12:02:05.659Z,4.63
2022-10-26T12:03:08.649Z,4.23
2022-10-26T12:04:02.629Z,4.83
2022-10-26T12:05:05.312Z,4.33
2022-10-26T12:06:01.281Z,3.63
2022-10-26T12:07:04.123Z,5.47
2022-10-26T12:08:05.945Z,4.30
2022-10-26T12:09:07.273Z,4.53
2022-10-26T12:10:05.743Z,4.80
2022-10-26T12:11:08.938Z,3.67
2022-10-26T12:12:06.548Z,4.70
2022-10-26T12:13:14.252Z,5.93
2022-10-26T12:14:06.544Z,4.83
2022-10-26T12:15:14.115Z,4.27
2022-10-26T12:16:12.322Z,5.43
2022-10-26T12:17:08.991Z,3.37
2022-10-26T12:18:13.130Z,5.33
2022-10-26T12:19:08.768Z,4.17
2022-10-26T12:20:13.337Z,5.17
2022-10-26T12:21:03.676Z,3.33
2022-10-26T12:22:01.953Z,4.97
2022-10-26T12:23:02.999Z,4.87
2022-10-26T12:24:12.042Z,4.77
2022-10-26T12:25:12.419Z,3.67
2022-10-26T12:26:20.397Z,2.97
2022-10-26T12:27:02.999Z,5.33
2022-10-26T12:28:01.222Z,3.70
2022-10-26T12:29:12.866Z,3.87
2022-10-26T12:30:20.405Z,2.87
2022-10-26T12:31:20.479Z,4.40
2022-10-26T12:32:00.933Z,4.53
2022-10-26T12:33:02.734Z,4.30
2022-10-26T12:34:02.259Z,4.67
2022-10-26T12:35:11.750Z,3.33
2022-10-26T12:36:01.282Z,3.87
2022-10-26T12:37:20.393Z,3.60
2022-10-26T12:38:12.071Z,3.53
2022-10-26T12:39:00.994Z,4.47
2022-10-26T12:40:20.386Z,4.10
2022-10-26T12:41:17.597Z,4.77
2022-10-26T12:42:19.716Z,3.87
2022-10-26T12:43:20.395Z,4.40
2022-10-26T12:44:20.399Z,4.57
2022-10-26T12:45:06.949Z,5.27
2022-10-26T12:46:20.396Z,5.50
2022-10-26T12:47:01.375Z,4.80
2022-10-26T12:48:10.772Z,4.40
2022-10-26T12:49:00.929Z,6.07
2022-10-26T12:50:11.190Z,4.90
2022-10-26T12:51:18.270Z,5.77
2022-10-26T12:53:09.843Z,5.00
2022-10-26T12:54:12.596Z,5.23
2022-10-26T12:55:19.554Z,3.90
2022-10-26T12:56:09.086Z,5.00
2022-10-26T12:57:14.299Z,4.97
2022-10-26T12:58:16.822Z,5.87
2022-10-26T12:59:12.489Z,3.60
2022-10-26T13:00:05.149Z,5.70
2022-10-26T13:01:20.428Z,4.63
2022-10-26T13:02:20.411Z,4.97
2022-10-26T13:03:20.136Z,4.73
2022-10-26T13:04:14.140Z,4.20
2022-10-26T13:05:20.389Z,4.70
2022-10-26T13:06:19.974Z,4.97
2022-10-26T13:07:16.285Z,5.33
2022-10-26T13:08:03.905Z,4.33
2022-10-26T13:10:04.959Z,3.67
2022-10-26T13:11:03.797Z,4.27
2022-10-26T13:12:03.578Z,5.43
2022-10-26T13:13:05.164Z,5.93
2022-10-26T13:14:04.485Z,6.10
2022-10-26T13:15:04.940Z,4.73
2022-10-26T13:16:02.797Z,3.87
2022-10-26T13:17:03.564Z,5.80
2022-10-26T13:18:08.775Z,5.07
2022-10-26T13:19:01.147Z,7.73
2022-10-26T13:20:03.775Z,5.73
2022-10-26T13:21:06.802Z,5.97
2022-10-26T13:22:01.516Z,5.70
2022-10-26T13:24:01.095Z,4.87
2022-10-26T13:25:04.427Z,5.23
2022-10-26T13:26:02.379Z,3.73